VHTMQ KLAS-KLAX
Flight info
| Callsign | VHTMQ |
|---|---|
| Flight time | N/A |
| Altitude | 8500 |
| Route | DCT HEC DCT PDZ DCT |
| Aircraft | DC3/M-SDF/G |
Departure
| Time | N/A |
|---|---|
| Airport | Harry Reid International Airport (KLAS) |
Arrival
| Time | 2026-04-22 20:30 |
|---|---|
| Airport | Los Angeles International Airport (KLAX) |
| Time | Latitude | Longitude | Altitude | Speed | Heading |
|---|---|---|---|---|---|
| 2026-04-22 19:04 | 35.28771 | -116.08139 | 955 ft | 0 kts | 71° |
| 2026-04-22 19:12 | 35.28768 | -116.08149 | 960 ft | 2 kts | 73° |
| 2026-04-22 19:12 | 35.28770 | -116.08168 | 959 ft | 2 kts | 118° |
| 2026-04-22 19:13 | 35.28781 | -116.08181 | 961 ft | 2 kts | 148° |
| 2026-04-22 19:13 | 35.28796 | -116.08189 | 959 ft | 2 kts | 160° |
| 2026-04-22 19:13 | 35.28811 | -116.08194 | 958 ft | 2 kts | 166° |
| 2026-04-22 19:13 | 35.28826 | -116.08199 | 956 ft | 2 kts | 166° |
| 2026-04-22 19:14 | 35.28842 | -116.08203 | 958 ft | 2 kts | 166° |
| 2026-04-22 19:14 | 35.28857 | -116.08208 | 958 ft | 2 kts | 166° |
| 2026-04-22 19:14 | 35.28873 | -116.08212 | 958 ft | 2 kts | 166° |
| 2026-04-22 19:14 | 35.28888 | -116.08217 | 958 ft | 2 kts | 167° |
| 2026-04-22 19:15 | 35.28898 | -116.08220 | 958 ft | 2 kts | 166° |
| 2026-04-22 19:15 | 35.28919 | -116.08227 | 957 ft | 2 kts | 164° |
| 2026-04-22 19:15 | 35.28934 | -116.08232 | 956 ft | 2 kts | 164° |
| 2026-04-22 19:15 | 35.28949 | -116.08238 | 956 ft | 2 kts | 164° |
| 2026-04-22 19:16 | 35.28951 | -116.08238 | 957 ft | 0 kts | 164° |
| 2026-04-22 19:25 | 35.28794 | -116.08190 | 956 ft | 46 kts | 171° |
| 2026-04-22 19:25 | 35.28390 | -116.08114 | 962 ft | 73 kts | 168° |
| 2026-04-22 19:25 | 35.27904 | -116.07891 | 1149 ft | 76 kts | 167° |
| 2026-04-22 19:26 | 35.27387 | -116.07704 | 1399 ft | 80 kts | 181° |
| 2026-04-22 19:26 | 35.26820 | -116.07767 | 1670 ft | 81 kts | 193° |
| 2026-04-22 19:26 | 35.26244 | -116.07853 | 1979 ft | 87 kts | 189° |
| 2026-04-22 19:26 | 35.25618 | -116.07878 | 2240 ft | 93 kts | 184° |
| 2026-04-22 19:27 | 35.24963 | -116.07837 | 2469 ft | 98 kts | 180° |
| 2026-04-22 19:27 | 35.24299 | -116.07705 | 2675 ft | 95 kts | 177° |
| 2026-04-22 19:27 | 35.23626 | -116.07512 | 2744 ft | 109 kts | 165° |
| 2026-04-22 19:27 | 35.22955 | -116.07490 | 3022 ft | 89 kts | 197° |
| 2026-04-22 19:28 | 35.22427 | -116.07801 | 3246 ft | 84 kts | 220° |
| 2026-04-22 19:28 | 35.21929 | -116.08225 | 3457 ft | 86 kts | 219° |
| 2026-04-22 19:28 | 35.21412 | -116.08595 | 3707 ft | 88 kts | 215° |
| 2026-04-22 19:28 | 35.20888 | -116.08961 | 3941 ft | 83 kts | 213° |
| 2026-04-22 19:29 | 35.20367 | -116.09301 | 4103 ft | 85 kts | 216° |
| 2026-04-22 19:29 | 35.19830 | -116.09771 | 3960 ft | 116 kts | 222° |
| 2026-04-22 19:29 | 35.19208 | -116.10388 | 4228 ft | 110 kts | 222° |
| 2026-04-22 19:29 | 35.18590 | -116.10927 | 4445 ft | 111 kts | 211° |
| 2026-04-22 19:30 | 35.18129 | -116.11187 | 4640 ft | 109 kts | 208° |
| 2026-04-22 19:30 | 35.17207 | -116.11648 | 4939 ft | 105 kts | 209° |
| 2026-04-22 19:30 | 35.16546 | -116.12030 | 5064 ft | 105 kts | 211° |
| 2026-04-22 19:30 | 35.15887 | -116.12422 | 5253 ft | 106 kts | 212° |
| 2026-04-22 19:31 | 35.15236 | -116.12812 | 5493 ft | 103 kts | 210° |
| 2026-04-22 19:31 | 35.14600 | -116.13197 | 5702 ft | 103 kts | 211° |
| 2026-04-22 19:31 | 35.13965 | -116.13577 | 5932 ft | 100 kts | 215° |
| 2026-04-22 19:31 | 35.13373 | -116.14011 | 6056 ft | 99 kts | 218° |
| 2026-04-22 19:32 | 35.12789 | -116.14454 | 6207 ft | 99 kts | 218° |
| 2026-04-22 19:32 | 35.12205 | -116.14894 | 6447 ft | 97 kts | 218° |
| 2026-04-22 19:32 | 35.11627 | -116.15322 | 6691 ft | 97 kts | 218° |
| 2026-04-22 19:32 | 35.11058 | -116.15752 | 6867 ft | 97 kts | 216° |
| 2026-04-22 19:33 | 35.10451 | -116.16113 | 7027 ft | 97 kts | 211° |
| 2026-04-22 19:33 | 35.09821 | -116.16427 | 7184 ft | 98 kts | 211° |
| 2026-04-22 19:33 | 35.09182 | -116.16727 | 7385 ft | 100 kts | 209° |
| 2026-04-22 19:33 | 35.08530 | -116.17019 | 7650 ft | 101 kts | 208° |
| 2026-04-22 19:34 | 35.07853 | -116.17270 | 7838 ft | 101 kts | 204° |
| 2026-04-22 19:34 | 35.07185 | -116.17448 | 7942 ft | 97 kts | 201° |
| 2026-04-22 19:34 | 35.06522 | -116.17561 | 8004 ft | 96 kts | 198° |
| 2026-04-22 19:34 | 35.05843 | -116.17612 | 8060 ft | 98 kts | 193° |
| 2026-04-22 19:35 | 35.05180 | -116.17704 | 8117 ft | 93 kts | 210° |
| 2026-04-22 19:35 | 35.04599 | -116.18005 | 8194 ft | 90 kts | 216° |
| 2026-04-22 19:35 | 35.04004 | -116.18272 | 8294 ft | 92 kts | 208° |
| 2026-04-22 19:35 | 35.03388 | -116.18482 | 8364 ft | 92 kts | 206° |
| 2026-04-22 19:36 | 35.02740 | -116.18648 | 8411 ft | 98 kts | 203° |
| 2026-04-22 19:36 | 35.02068 | -116.18819 | 8459 ft | 101 kts | 202° |
| 2026-04-22 19:36 | 35.01370 | -116.18992 | 8465 ft | 101 kts | 202° |
| 2026-04-22 19:36 | 35.00690 | -116.19154 | 8481 ft | 101 kts | 202° |
| 2026-04-22 19:37 | 35.00001 | -116.19311 | 8486 ft | 101 kts | 202° |
| 2026-04-22 19:37 | 34.99311 | -116.19466 | 8491 ft | 100 kts | 202° |
| 2026-04-22 19:37 | 34.98638 | -116.19656 | 8493 ft | 99 kts | 206° |
| 2026-04-22 19:37 | 34.97976 | -116.19888 | 8488 ft | 98 kts | 209° |
| 2026-04-22 19:38 | 34.97334 | -116.20155 | 8481 ft | 97 kts | 211° |
| 2026-04-22 19:38 | 34.96704 | -116.20464 | 8485 ft | 100 kts | 213° |
| 2026-04-22 19:38 | 34.96030 | -116.20836 | 8617 ft | 111 kts | 215° |
| 2026-04-22 19:38 | 34.95334 | -116.21253 | 8818 ft | 112 kts | 217° |
| 2026-04-22 19:39 | 34.94649 | -116.21710 | 9036 ft | 112 kts | 220° |
| 2026-04-22 19:39 | 34.93995 | -116.22216 | 9235 ft | 112 kts | 223° |
| 2026-04-22 19:39 | 34.93307 | -116.22686 | 9429 ft | 114 kts | 217° |
| 2026-04-22 19:39 | 34.92619 | -116.23147 | 9627 ft | 114 kts | 220° |
| 2026-04-22 19:40 | 34.91923 | -116.23651 | 9718 ft | 121 kts | 220° |
| 2026-04-22 19:40 | 34.91161 | -116.24231 | 9665 ft | 136 kts | 220° |
| 2026-04-22 19:40 | 34.90343 | -116.24885 | 9686 ft | 144 kts | 221° |
| 2026-04-22 19:40 | 34.89497 | -116.25587 | 9771 ft | 149 kts | 222° |
| 2026-04-22 19:41 | 34.88646 | -116.26327 | 9827 ft | 151 kts | 223° |
| 2026-04-22 19:41 | 34.87833 | -116.27148 | 9879 ft | 153 kts | 228° |
| 2026-04-22 19:41 | 34.87045 | -116.28046 | 9870 ft | 157 kts | 229° |
| 2026-04-22 19:41 | 34.86254 | -116.28978 | 9875 ft | 160 kts | 230° |
| 2026-04-22 19:42 | 34.85456 | -116.29937 | 9861 ft | 163 kts | 230° |
| 2026-04-22 19:42 | 34.84644 | -116.30917 | 9606 ft | 167 kts | 230° |
| 2026-04-22 19:42 | 34.83786 | -116.31963 | 9378 ft | 180 kts | 230° |
| 2026-04-22 19:42 | 34.82901 | -116.33055 | 9178 ft | 187 kts | 230° |
| 2026-04-22 19:43 | 34.81013 | -116.35349 | 8843 ft | 195 kts | 230° |
| 2026-04-22 19:43 | 34.80051 | -116.36534 | 8669 ft | 198 kts | 230° |
| 2026-04-22 19:43 | 34.79104 | -116.37724 | 8699 ft | 191 kts | 231° |
| 2026-04-22 19:44 | 34.78186 | -116.38862 | 8739 ft | 187 kts | 230° |
| 2026-04-22 19:44 | 34.77240 | -116.39928 | 8748 ft | 183 kts | 233° |
| 2026-04-22 19:44 | 34.76418 | -116.41108 | 8779 ft | 183 kts | 232° |
| 2026-04-22 19:44 | 34.75384 | -116.42063 | 8677 ft | 191 kts | 216° |
| 2026-04-22 19:45 | 34.74216 | -116.42866 | 8611 ft | 193 kts | 214° |
| 2026-04-22 19:45 | 34.73031 | -116.43636 | 8550 ft | 193 kts | 214° |
| 2026-04-22 19:45 | 34.71839 | -116.44386 | 8487 ft | 193 kts | 213° |
| 2026-04-22 19:45 | 34.70650 | -116.45136 | 8441 ft | 192 kts | 213° |
| 2026-04-22 19:46 | 34.69491 | -116.45927 | 8416 ft | 190 kts | 216° |
| 2026-04-22 19:46 | 34.68390 | -116.46751 | 8390 ft | 188 kts | 218° |
| 2026-04-22 19:46 | 34.67256 | -116.47570 | 8404 ft | 188 kts | 214° |
| 2026-04-22 19:46 | 34.66116 | -116.48330 | 8432 ft | 187 kts | 215° |
| 2026-04-22 19:47 | 34.64979 | -116.49087 | 8489 ft | 186 kts | 214° |
| 2026-04-22 19:47 | 34.63845 | -116.49849 | 8522 ft | 186 kts | 215° |
| 2026-04-22 19:47 | 34.62715 | -116.50609 | 8529 ft | 186 kts | 214° |
| 2026-04-22 19:47 | 34.61576 | -116.51381 | 8472 ft | 189 kts | 215° |
| 2026-04-22 19:48 | 34.60441 | -116.52168 | 8389 ft | 184 kts | 216° |
| 2026-04-22 19:48 | 34.59369 | -116.52927 | 8303 ft | 179 kts | 216° |
| 2026-04-22 19:48 | 34.58280 | -116.53720 | 8220 ft | 184 kts | 217° |
| 2026-04-22 19:48 | 34.57178 | -116.54531 | 8184 ft | 185 kts | 216° |
| 2026-04-22 19:49 | 34.56167 | -116.55479 | 8125 ft | 184 kts | 228° |
| 2026-04-22 19:49 | 34.55263 | -116.56570 | 8095 ft | 183 kts | 230° |
| 2026-04-22 19:49 | 34.54382 | -116.57669 | 8103 ft | 180 kts | 230° |
| 2026-04-22 19:49 | 34.53516 | -116.58758 | 8157 ft | 179 kts | 230° |
| 2026-04-22 19:50 | 34.52663 | -116.59854 | 8163 ft | 178 kts | 231° |
| 2026-04-22 19:50 | 34.51769 | -116.60877 | 8209 ft | 179 kts | 226° |
| 2026-04-22 19:50 | 34.50821 | -116.61853 | 8236 ft | 179 kts | 224° |
| 2026-04-22 19:50 | 34.49866 | -116.62809 | 8263 ft | 178 kts | 224° |
| 2026-04-22 19:51 | 34.48908 | -116.63766 | 8316 ft | 178 kts | 224° |
| 2026-04-22 19:51 | 34.47950 | -116.64718 | 8336 ft | 178 kts | 224° |
| 2026-04-22 19:51 | 34.46998 | -116.65677 | 8370 ft | 178 kts | 224° |
| 2026-04-22 19:51 | 34.46052 | -116.66634 | 8421 ft | 177 kts | 224° |
| 2026-04-22 19:52 | 34.45107 | -116.67600 | 8471 ft | 177 kts | 225° |
| 2026-04-22 19:52 | 34.44168 | -116.68572 | 8480 ft | 178 kts | 225° |
| 2026-04-22 19:52 | 34.43225 | -116.69554 | 8511 ft | 178 kts | 225° |
| 2026-04-22 19:52 | 34.42284 | -116.70526 | 8558 ft | 177 kts | 225° |
| 2026-04-22 19:53 | 34.41349 | -116.71500 | 8576 ft | 177 kts | 225° |
| 2026-04-22 19:53 | 34.40416 | -116.72475 | 8606 ft | 176 kts | 226° |
| 2026-04-22 19:53 | 34.39503 | -116.73436 | 8629 ft | 176 kts | 225° |
| 2026-04-22 19:53 | 34.38591 | -116.74423 | 8675 ft | 175 kts | 229° |
| 2026-04-22 19:54 | 34.38145 | -116.75728 | 8637 ft | 174 kts | 272° |
| 2026-04-22 19:54 | 34.38372 | -116.77159 | 8694 ft | 172 kts | 281° |
| 2026-04-22 19:54 | 34.38630 | -116.78567 | 8766 ft | 171 kts | 282° |
| 2026-04-22 19:54 | 34.38888 | -116.79965 | 8821 ft | 170 kts | 281° |
| 2026-04-22 19:55 | 34.39121 | -116.81363 | 8880 ft | 169 kts | 279° |
| 2026-04-22 19:55 | 34.39276 | -116.82773 | 8944 ft | 169 kts | 276° |
| 2026-04-22 19:55 | 34.39403 | -116.84184 | 9002 ft | 168 kts | 276° |
| 2026-04-22 19:55 | 34.39529 | -116.85592 | 9069 ft | 168 kts | 276° |
| 2026-04-22 19:56 | 34.39648 | -116.87001 | 9088 ft | 170 kts | 275° |
| 2026-04-22 19:56 | 34.39759 | -116.88440 | 9063 ft | 172 kts | 275° |
| 2026-04-22 19:56 | 34.39878 | -116.89891 | 9035 ft | 174 kts | 275° |
| 2026-04-22 19:56 | 34.40005 | -116.91350 | 9033 ft | 175 kts | 276° |
| 2026-04-22 19:57 | 34.40000 | -116.92818 | 9012 ft | 177 kts | 258° |
| 2026-04-22 19:57 | 34.39325 | -116.94091 | 8985 ft | 182 kts | 234° |
| 2026-04-22 19:57 | 34.38507 | -116.95263 | 9017 ft | 182 kts | 233° |
| 2026-04-22 19:57 | 34.37680 | -116.96419 | 9048 ft | 181 kts | 233° |
| 2026-04-22 19:58 | 34.36853 | -116.97540 | 9061 ft | 182 kts | 230° |
| 2026-04-22 19:58 | 34.35947 | -116.98626 | 9116 ft | 183 kts | 229° |
| 2026-04-22 19:58 | 34.35009 | -116.99671 | 9168 ft | 184 kts | 225° |
| 2026-04-22 19:58 | 34.34037 | -117.00692 | 9118 ft | 188 kts | 225° |
| 2026-04-22 19:59 | 34.33014 | -117.01694 | 9082 ft | 190 kts | 222° |
| 2026-04-22 20:00 | 34.26496 | -117.07587 | 8843 ft | 200 kts | 223° |
| 2026-04-22 20:00 | 34.25421 | -117.08657 | 8781 ft | 201 kts | 223° |
| 2026-04-22 20:01 | 34.24353 | -117.09751 | 8710 ft | 201 kts | 224° |
| 2026-04-22 20:01 | 34.23299 | -117.10863 | 8709 ft | 200 kts | 225° |
| 2026-04-22 20:01 | 34.22263 | -117.11972 | 8646 ft | 198 kts | 225° |
| 2026-04-22 20:01 | 34.21261 | -117.13054 | 8596 ft | 190 kts | 226° |
| 2026-04-22 20:02 | 34.20305 | -117.14121 | 8557 ft | 185 kts | 226° |
| 2026-04-22 20:02 | 34.19398 | -117.15166 | 8453 ft | 181 kts | 228° |
| 2026-04-22 20:02 | 34.18503 | -117.16224 | 8353 ft | 179 kts | 229° |
| 2026-04-22 20:02 | 34.17629 | -117.17287 | 8264 ft | 178 kts | 229° |
| 2026-04-22 20:03 | 34.16746 | -117.18326 | 8165 ft | 177 kts | 227° |
| 2026-04-22 20:03 | 34.15843 | -117.19334 | 8049 ft | 177 kts | 225° |
| 2026-04-22 20:03 | 34.14910 | -117.20306 | 7958 ft | 177 kts | 223° |
| 2026-04-22 20:03 | 34.13955 | -117.21241 | 7860 ft | 177 kts | 222° |
| 2026-04-22 20:04 | 34.12982 | -117.22144 | 7768 ft | 176 kts | 220° |
| 2026-04-22 20:04 | 34.12002 | -117.23010 | 7668 ft | 174 kts | 220° |
| 2026-04-22 20:04 | 34.11018 | -117.23859 | 7555 ft | 173 kts | 219° |
| 2026-04-22 20:04 | 34.10051 | -117.24716 | 7417 ft | 172 kts | 219° |
| 2026-04-22 20:05 | 34.09084 | -117.25569 | 7281 ft | 172 kts | 219° |
| 2026-04-22 20:05 | 34.08137 | -117.26452 | 7197 ft | 172 kts | 221° |
| 2026-04-22 20:05 | 34.07195 | -117.27354 | 7038 ft | 175 kts | 220° |
| 2026-04-22 20:05 | 34.06257 | -117.28255 | 6841 ft | 165 kts | 221° |
| 2026-04-22 20:06 | 34.05411 | -117.29105 | 6592 ft | 153 kts | 223° |
| 2026-04-22 20:06 | 34.04621 | -117.29937 | 6412 ft | 154 kts | 224° |
| 2026-04-22 20:06 | 34.03814 | -117.30825 | 6262 ft | 160 kts | 225° |
| 2026-04-22 20:06 | 34.03004 | -117.31740 | 6176 ft | 163 kts | 225° |
| 2026-04-22 20:07 | 34.02196 | -117.32702 | 6119 ft | 164 kts | 228° |
| 2026-04-22 20:07 | 34.01437 | -117.33748 | 6055 ft | 164 kts | 233° |
| 2026-04-22 20:07 | 34.00757 | -117.34825 | 6018 ft | 164 kts | 235° |
| 2026-04-22 20:07 | 34.00119 | -117.35960 | 5970 ft | 164 kts | 237° |
| 2026-04-22 20:08 | 33.99484 | -117.37045 | 6125 ft | 153 kts | 236° |
| 2026-04-22 20:08 | 33.98859 | -117.38030 | 6225 ft | 145 kts | 234° |
| 2026-04-22 20:08 | 33.98213 | -117.38944 | 6361 ft | 142 kts | 231° |
| 2026-04-22 20:08 | 33.97763 | -117.39533 | 6418 ft | 141 kts | 229° |
| 2026-04-22 20:09 | 33.97081 | -117.40350 | 6471 ft | 139 kts | 229° |
| 2026-04-22 20:09 | 33.96385 | -117.41154 | 6500 ft | 138 kts | 226° |
| 2026-04-22 20:09 | 33.95658 | -117.41916 | 6542 ft | 138 kts | 223° |
| 2026-04-22 20:09 | 33.94926 | -117.42661 | 6600 ft | 137 kts | 226° |
| 2026-04-22 20:10 | 33.94251 | -117.43463 | 6622 ft | 136 kts | 230° |
| 2026-04-22 20:10 | 33.93652 | -117.44331 | 6670 ft | 133 kts | 243° |
| 2026-04-22 20:10 | 33.93366 | -117.45373 | 6720 ft | 131 kts | 266° |
| 2026-04-22 20:10 | 33.93400 | -117.46461 | 6777 ft | 130 kts | 278° |
| 2026-04-22 20:11 | 33.93520 | -117.47547 | 6810 ft | 132 kts | 279° |
| 2026-04-22 20:11 | 33.93665 | -117.48640 | 6856 ft | 133 kts | 280° |
| 2026-04-22 20:11 | 33.93818 | -117.49740 | 6897 ft | 134 kts | 281° |
| 2026-04-22 20:11 | 33.93977 | -117.50842 | 6938 ft | 133 kts | 281° |
| 2026-04-22 20:12 | 33.94137 | -117.51946 | 7003 ft | 134 kts | 281° |
| 2026-04-22 20:12 | 33.94282 | -117.53051 | 7087 ft | 133 kts | 277° |
| 2026-04-22 20:12 | 33.94354 | -117.54162 | 7107 ft | 133 kts | 275° |
| 2026-04-22 20:12 | 33.94399 | -117.55263 | 7118 ft | 134 kts | 274° |
| 2026-04-22 20:13 | 33.94435 | -117.56387 | 7116 ft | 135 kts | 274° |
| 2026-04-22 20:13 | 33.94468 | -117.57521 | 7095 ft | 136 kts | 274° |
| 2026-04-22 20:13 | 33.94501 | -117.58666 | 7086 ft | 137 kts | 274° |
| 2026-04-22 20:13 | 33.94534 | -117.59815 | 7087 ft | 137 kts | 274° |
| 2026-04-22 20:14 | 33.94564 | -117.60970 | 7051 ft | 140 kts | 274° |
| 2026-04-22 20:14 | 33.94599 | -117.62179 | 6930 ft | 148 kts | 274° |
| 2026-04-22 20:14 | 33.94611 | -117.63437 | 6847 ft | 153 kts | 271° |
| 2026-04-22 20:14 | 33.94578 | -117.64727 | 6773 ft | 155 kts | 270° |
| 2026-04-22 20:15 | 33.94531 | -117.66031 | 6705 ft | 156 kts | 270° |
| 2026-04-22 20:15 | 33.94474 | -117.67348 | 6624 ft | 158 kts | 270° |
| 2026-04-22 20:15 | 33.94409 | -117.68672 | 6570 ft | 159 kts | 270° |
| 2026-04-22 20:15 | 33.94348 | -117.70001 | 6449 ft | 158 kts | 270° |
| 2026-04-22 20:16 | 33.94320 | -117.71325 | 6357 ft | 159 kts | 272° |
| 2026-04-22 20:16 | 33.94309 | -117.72665 | 6310 ft | 160 kts | 272° |
| 2026-04-22 20:16 | 33.94297 | -117.74005 | 6291 ft | 160 kts | 272° |
| 2026-04-22 20:16 | 33.94299 | -117.75350 | 6200 ft | 163 kts | 273° |
| 2026-04-22 20:17 | 33.94322 | -117.76746 | 6015 ft | 170 kts | 274° |
| 2026-04-22 20:17 | 33.94365 | -117.78167 | 5882 ft | 174 kts | 274° |
| 2026-04-22 20:17 | 33.94418 | -117.79634 | 5704 ft | 175 kts | 275° |
| 2026-04-22 20:17 | 33.94467 | -117.81100 | 5537 ft | 176 kts | 271° |
| 2026-04-22 20:18 | 33.94446 | -117.82571 | 5365 ft | 177 kts | 271° |
| 2026-04-22 20:18 | 33.94440 | -117.84078 | 5187 ft | 178 kts | 271° |
| 2026-04-22 20:18 | 33.94440 | -117.85557 | 4996 ft | 179 kts | 271° |
| 2026-04-22 20:18 | 33.94437 | -117.87043 | 4960 ft | 174 kts | 271° |
| 2026-04-22 20:19 | 33.94439 | -117.88470 | 4913 ft | 168 kts | 271° |
| 2026-04-22 20:19 | 33.94405 | -117.89862 | 4798 ft | 165 kts | 268° |
| 2026-04-22 20:19 | 33.94348 | -117.91229 | 4763 ft | 162 kts | 268° |
| 2026-04-22 20:19 | 33.94287 | -117.92574 | 4712 ft | 160 kts | 268° |
| 2026-04-22 20:20 | 33.94233 | -117.93907 | 4625 ft | 159 kts | 268° |
| 2026-04-22 20:20 | 33.94265 | -117.95232 | 4554 ft | 158 kts | 276° |
| 2026-04-22 20:20 | 33.94503 | -117.96529 | 4474 ft | 159 kts | 285° |
| 2026-04-22 20:20 | 33.94828 | -117.97802 | 4403 ft | 159 kts | 287° |
| 2026-04-22 20:21 | 33.95167 | -117.99065 | 4326 ft | 158 kts | 287° |
| 2026-04-22 20:21 | 33.95522 | -118.00324 | 4241 ft | 159 kts | 288° |
| 2026-04-22 20:21 | 33.95888 | -118.01583 | 4124 ft | 159 kts | 288° |
| 2026-04-22 20:21 | 33.96249 | -118.02846 | 4026 ft | 160 kts | 288° |
| 2026-04-22 20:22 | 33.96612 | -118.04112 | 3936 ft | 159 kts | 285° |
| 2026-04-22 20:22 | 33.96801 | -118.05426 | 3842 ft | 159 kts | 276° |
| 2026-04-22 20:22 | 33.96863 | -118.06140 | 3814 ft | 159 kts | 274° |
| 2026-04-22 20:22 | 33.96896 | -118.07513 | 3714 ft | 159 kts | 266° |
| 2026-04-22 20:23 | 33.96792 | -118.08833 | 3618 ft | 158 kts | 262° |
| 2026-04-22 20:23 | 33.96652 | -118.10129 | 3546 ft | 157 kts | 261° |
| 2026-04-22 20:23 | 33.96504 | -118.11434 | 3461 ft | 157 kts | 261° |
| 2026-04-22 20:23 | 33.96358 | -118.12737 | 3382 ft | 157 kts | 261° |
| 2026-04-22 20:24 | 33.96214 | -118.14041 | 3315 ft | 157 kts | 261° |
| 2026-04-22 20:24 | 33.96069 | -118.15346 | 3256 ft | 157 kts | 261° |
| 2026-04-22 20:24 | 33.95917 | -118.16652 | 3167 ft | 157 kts | 260° |
| 2026-04-22 20:24 | 33.95749 | -118.17945 | 3118 ft | 152 kts | 261° |
| 2026-04-22 20:25 | 33.95616 | -118.19119 | 3107 ft | 134 kts | 261° |
| 2026-04-22 20:25 | 33.95500 | -118.20221 | 3082 ft | 134 kts | 262° |
| 2026-04-22 20:25 | 33.95393 | -118.21359 | 3055 ft | 138 kts | 262° |
| 2026-04-22 20:25 | 33.95287 | -118.22498 | 3010 ft | 140 kts | 262° |
| 2026-04-22 20:26 | 33.95166 | -118.23667 | 2977 ft | 140 kts | 261° |
| 2026-04-22 20:26 | 33.95027 | -118.24845 | 2829 ft | 145 kts | 261° |
| 2026-04-22 20:26 | 33.94923 | -118.25998 | 2621 ft | 128 kts | 265° |
| 2026-04-22 20:26 | 33.94857 | -118.27042 | 2432 ft | 124 kts | 262° |
| 2026-04-22 20:27 | 33.94755 | -118.28102 | 2248 ft | 133 kts | 261° |
| 2026-04-22 20:27 | 33.94634 | -118.29228 | 2115 ft | 136 kts | 262° |
| 2026-04-22 20:27 | 33.94530 | -118.30329 | 1907 ft | 123 kts | 263° |
| 2026-04-22 20:27 | 33.94440 | -118.31329 | 1668 ft | 119 kts | 263° |
| 2026-04-22 20:28 | 33.94333 | -118.32293 | 1424 ft | 112 kts | 264° |
| 2026-04-22 20:28 | 33.94272 | -118.33190 | 1230 ft | 105 kts | 263° |
| 2026-04-22 20:28 | 33.94206 | -118.33970 | 1110 ft | 103 kts | 260° |
| 2026-04-22 20:28 | 33.94077 | -118.34826 | 898 ft | 103 kts | 258° |
| 2026-04-22 20:29 | 33.93999 | -118.35657 | 701 ft | 97 kts | 266° |
| 2026-04-22 20:29 | 33.93939 | -118.36442 | 535 ft | 91 kts | 262° |
| 2026-04-22 20:29 | 33.93847 | -118.37182 | 413 ft | 89 kts | 261° |
| 2026-04-22 20:29 | 33.93779 | -118.37925 | 242 ft | 90 kts | 259° |
| 2026-04-22 20:30 | 33.93701 | -118.38652 | 124 ft | 84 kts | 258° |
| 2026-04-22 20:30 | 33.93637 | -118.39285 | 110 ft | 67 kts | 253° |
| 2026-04-22 20:30 | 33.93585 | -118.39745 | 111 ft | 44 kts | 262° |
| 2026-04-22 20:30 | 33.93550 | -118.39954 | 111 ft | 19 kts | 264° |
| 2026-04-22 20:31 | 33.93536 | -118.40084 | 110 ft | 13 kts | 255° |
| 2026-04-22 20:31 | 33.93503 | -118.40170 | 111 ft | 10 kts | 240° |
| 2026-04-22 20:31 | 33.93446 | -118.40209 | 105 ft | 12 kts | 156° |
| 2026-04-22 20:31 | 33.93426 | -118.40188 | 102 ft | 1 kts | 124° |
| 2026-04-22 20:32 | 33.93420 | -118.40178 | 102 ft | 0 kts | 101° |
| 2026-04-22 20:33 | 33.93419 | -118.40165 | 101 ft | 9 kts | 86° |
| 2026-04-22 20:33 | 33.93430 | -118.40063 | 101 ft | 14 kts | 83° |
| 2026-04-22 20:34 | 33.93441 | -118.39944 | 101 ft | 15 kts | 83° |
| 2026-04-22 20:34 | 33.93457 | -118.39820 | 101 ft | 14 kts | 83° |
| 2026-04-22 20:34 | 33.93467 | -118.39710 | 101 ft | 12 kts | 85° |
| 2026-04-22 20:34 | 33.93476 | -118.39622 | 101 ft | 10 kts | 82° |
| 2026-04-22 20:35 | 33.93485 | -118.39536 | 101 ft | 11 kts | 84° |
| 2026-04-22 20:35 | 33.93495 | -118.39432 | 101 ft | 14 kts | 83° |
| 2026-04-22 20:35 | 33.93506 | -118.39309 | 100 ft | 16 kts | 85° |
| 2026-04-22 20:35 | 33.93521 | -118.39175 | 101 ft | 16 kts | 82° |
| 2026-04-22 20:36 | 33.93534 | -118.39052 | 101 ft | 15 kts | 84° |
| 2026-04-22 20:36 | 33.93546 | -118.38931 | 100 ft | 15 kts | 84° |
| 2026-04-22 20:36 | 33.93557 | -118.38806 | 100 ft | 15 kts | 82° |
| 2026-04-22 20:36 | 33.93571 | -118.38683 | 100 ft | 15 kts | 83° |
| 2026-04-22 20:37 | 33.93584 | -118.38561 | 101 ft | 15 kts | 82° |
| 2026-04-22 20:37 | 33.93596 | -118.38445 | 101 ft | 13 kts | 83° |
| 2026-04-22 20:37 | 33.93606 | -118.38345 | 101 ft | 13 kts | 84° |
| 2026-04-22 20:37 | 33.93617 | -118.38239 | 101 ft | 13 kts | 82° |
| 2026-04-22 20:38 | 33.93613 | -118.38131 | 98 ft | 10 kts | 147° |
| 2026-04-22 20:38 | 33.93559 | -118.38127 | 97 ft | 7 kts | 184° |
| 2026-04-22 20:38 | 33.93535 | -118.38123 | 98 ft | 3 kts | 120° |
| 2026-04-22 20:39 | 33.93540 | -118.38046 | 98 ft | 6 kts | 74° |
| 2026-04-22 20:39 | 33.93542 | -118.38036 | 97 ft | 1 kts | 78° |
| 2026-04-22 20:39 | 33.93544 | -118.38026 | 96 ft | 0 kts | 78° |